Beatty, OR

4:40 PM PDT on August 21, 2014 (GMT -0700)
Ferguson Mountain | Change Station
CLOSE
Current Station
Personal Weather Station
Location: Beatty, OR
Elevation: 4843 ft
Nearby Weather Stations

Elev 4843 ft 42.48 °N, 121.21 °W | Updated 44 seconds ago

Clear
Clear
83.3 °F
Feels Like 81 °F
N
8.0
Wind Variable Wind from WNW
Gusts 9.0 mph

Today
High -- | Low -- °F
--% Chance of Precip.
Yesterday
High -- | Low -- °F
Precip. -- in
6:18 AM 7:56 PM
Waning Crescent, 11% visible
Pressure 29.90 in
Visibility 10.0 miles
Clouds Clear
Heat Index 81 °F
Dew Point 29 °F
Humidity 14%
Rainfall 0.00 in
Snow Depth Not available.
UV 6 out of 12
Pollen 5.30 out of 12
Air Quality Not available.
Flu Activity Not available.
METAR KLMT 212253Z AUTO 34011G20KT 10SM CLR 28/M01 A3001 RMK AO2 SLP123 T02781011

More Conditions Fewer Conditions

Pressure 29.90 in
Visibility 10.0 miles
Clouds Clear
Heat Index 81 °F
Dew Point 29 °F
Humidity 14%
Rainfall 0.00 in
Snow Depth Not available.
UV 6 out of 12
Pollen 5.30 out of 12
Air Quality Not available.
Flu Activity Not available.
METAR KLMT 212253Z AUTO 34011G20KT 10SM CLR 28/M01 A3001 RMK AO2 SLP123 T02781011

More Conditions Fewer Conditions

10-Day Weather Forecast

Almanac

Astronomy

Aug. 21, 2014 Rise Set
Actual Time 6:18 AM PDT 7:56 PM PDT
Civil Twilight 5:48 AM PDT 8:26 PM PDT
Nautical Twilight 5:12 AM PDT 9:02 PM PDT
Astronomical Twilight 4:33 AM PDT 9:40 PM PDT
Moon 2:51 AM PDT 5:30 PM PDT
Length of Visible Light 14h 37m
Length of Day
13h 38m
Tomorrow will be 2m 38s shorter.
Waning Crescent, 11% of the Moon is Illuminated
Today
Waning Crescent
Aug 25
New
Sep 2
First Quarter
Sep 8
Full
Sep 15
Last Quarter

Today's Extremes

State Highs State Lows

Community

WunderPhotos

Upload Photos

1,746,055 photos uploaded!

Nearby

Snow Depth

Station Depth Elevation
Silver Creek 0 in 5720 ft
Strawberry 0 in 5760 ft
Sevenmile Marsh 0 in 6200 ft
Fourmile Lake 1 in 6000 ft
Fish Lake 0 in 4665 ft

Earthquake Activity

City Distance Mag. Time & Date
No recent earthquake activity has been reported nearby.
Minimum magnitude displayed is 2.5.

Coastal Water Temperatures

Place Temperature
No Stations Reporting

Nearby Weather Stations